createdAt,value
2022-11-17T00:00:21.678Z,0.00
2022-11-17T00:01:21.668Z,0.00
2022-11-17T00:02:21.719Z,0.00
2022-11-17T00:03:21.657Z,0.00
2022-11-17T00:04:21.637Z,0.00
2022-11-17T00:05:21.647Z,0.00
2022-11-17T00:06:21.607Z,0.00
2022-11-17T00:07:21.723Z,0.00
2022-11-17T00:08:21.579Z,0.00
2022-11-17T00:09:21.575Z,0.00
2022-11-17T00:10:21.558Z,0.00
2022-11-17T00:11:21.568Z,0.00
2022-11-17T00:12:22.867Z,0.00
2022-11-17T00:13:21.528Z,0.00
2022-11-17T00:14:21.526Z,0.00
2022-11-17T00:15:21.509Z,0.00
2022-11-17T00:16:21.519Z,0.00
2022-11-17T00:17:21.478Z,0.00
2022-11-17T00:18:21.467Z,0.00
2022-11-17T00:19:21.478Z,0.00
2022-11-17T00:20:21.448Z,0.00
2022-11-17T00:21:21.793Z,0.00
2022-11-17T00:22:21.450Z,0.00
2022-11-17T00:23:21.411Z,0.00
2022-11-17T00:24:21.398Z,0.00
2022-11-17T00:25:21.386Z,0.00
2022-11-17T00:26:21.384Z,0.00
2022-11-17T00:27:21.366Z,0.00
2022-11-17T00:28:21.379Z,0.00
2022-11-17T00:29:21.347Z,0.00
2022-11-17T00:30:21.337Z,0.00
2022-11-17T00:31:21.319Z,0.00
2022-11-17T00:32:21.308Z,0.00
2022-11-17T00:33:21.295Z,0.00
2022-11-17T00:34:21.299Z,0.00
2022-11-17T00:35:21.270Z,0.00
2022-11-17T00:36:21.288Z,0.00
2022-11-17T00:37:21.258Z,0.00
2022-11-17T00:38:21.240Z,0.00
2022-11-17T00:39:21.248Z,0.00
2022-11-17T00:40:21.216Z,0.00
2022-11-17T00:41:21.201Z,0.00
2022-11-17T00:42:21.198Z,0.00
2022-11-17T00:43:21.178Z,0.00
2022-11-17T00:44:21.178Z,0.00
2022-11-17T00:45:21.187Z,0.00
2022-11-17T00:46:21.148Z,0.00
2022-11-17T00:47:21.136Z,0.00
2022-11-17T00:48:21.131Z,0.00
2022-11-17T00:49:21.107Z,0.00
2022-11-17T00:50:21.098Z,0.00
2022-11-17T00:51:21.107Z,0.00
2022-11-17T00:52:21.087Z,0.00
2022-11-17T00:53:21.067Z,0.00
2022-11-17T00:54:21.057Z,0.00
2022-11-17T00:55:21.084Z,0.00
2022-11-17T00:56:21.067Z,0.00
2022-11-17T00:57:21.024Z,0.00
2022-11-17T00:58:21.019Z,0.00
2022-11-17T00:59:20.997Z,0.00
2022-11-17T01:00:20.989Z,0.00
2022-11-17T01:01:21.022Z,0.00
2022-11-17T01:02:20.989Z,0.00
2022-11-17T01:03:20.957Z,0.00
2022-11-17T01:04:20.938Z,0.00
2022-11-17T01:05:20.927Z,0.00
2022-11-17T01:06:20.918Z,0.00
2022-11-17T01:07:20.952Z,0.00
2022-11-17T01:08:20.918Z,0.00
2022-11-17T01:09:20.890Z,0.00
2022-11-17T01:10:20.869Z,0.00
2022-11-17T01:11:20.858Z,0.00
2022-11-17T01:12:20.848Z,0.00
2022-11-17T01:13:20.829Z,0.00
2022-11-17T01:14:20.848Z,0.00
2022-11-17T01:15:20.808Z,0.00
2022-11-17T01:16:20.817Z,0.00
2022-11-17T01:17:20.787Z,0.00
2022-11-17T01:18:20.781Z,0.00
2022-11-17T01:19:20.768Z,0.00
2022-11-17T01:20:20.778Z,0.00
2022-11-17T01:21:20.740Z,0.00
2022-11-17T01:22:20.730Z,0.00
2022-11-17T01:23:20.717Z,0.00
2022-11-17T01:24:20.710Z,0.00
2022-11-17T01:25:20.697Z,0.00
2022-11-17T01:26:20.698Z,0.00
2022-11-17T01:27:20.669Z,0.00
2022-11-17T01:28:20.667Z,0.00
2022-11-17T01:29:20.657Z,0.00
2022-11-17T01:30:20.665Z,0.00
2022-11-17T01:31:20.689Z,0.00
2022-11-17T01:32:20.618Z,0.00
2022-11-17T01:33:20.606Z,0.00
2022-11-17T01:34:20.592Z,0.00
2022-11-17T01:35:20.588Z,0.00
2022-11-17T01:36:20.567Z,0.00
2022-11-17T01:37:20.610Z,0.00
2022-11-17T01:38:20.546Z,0.00
2022-11-17T01:39:20.538Z,0.00
2022-11-17T01:40:20.518Z,0.00
2022-11-17T01:41:20.518Z,0.00
2022-11-17T01:42:20.499Z,0.00
2022-11-17T01:43:20.510Z,0.00
2022-11-17T01:44:20.479Z,0.00
2022-11-17T01:45:20.469Z,0.00
2022-11-17T01:46:20.455Z,0.00
2022-11-17T01:47:20.448Z,0.00
2022-11-17T01:48:20.438Z,0.00
2022-11-17T01:49:20.438Z,0.00
2022-11-17T01:50:20.408Z,0.00
2022-11-17T01:51:20.397Z,0.00
2022-11-17T01:52:20.395Z,0.00
2022-11-17T01:53:20.375Z,0.00
2022-11-17T01:54:20.368Z,0.00
2022-11-17T01:55:20.367Z,0.00
2022-11-17T01:56:20.338Z,0.00
2022-11-17T01:57:20.328Z,0.00
2022-11-17T01:58:20.316Z,0.00
2022-11-17T01:59:20.310Z,0.00
2022-11-17T02:00:20.317Z,0.00
2022-11-17T02:01:20.330Z,0.00
2022-11-17T02:02:20.267Z,0.00
2022-11-17T02:03:20.268Z,0.00
2022-11-17T02:04:20.287Z,0.00
2022-11-17T02:05:20.238Z,0.00
2022-11-17T02:06:20.255Z,0.00
2022-11-17T02:07:20.303Z,0.00
2022-11-17T02:08:20.202Z,0.00
2022-11-17T02:09:20.194Z,0.00
2022-11-17T02:10:20.178Z,0.00
2022-11-17T02:11:20.167Z,0.00
2022-11-17T02:12:20.185Z,0.00
2022-11-17T02:13:20.146Z,0.00
2022-11-17T02:14:20.127Z,0.00
2022-11-17T02:15:20.126Z,0.00
2022-11-17T02:16:20.109Z,0.00
2022-11-17T02:17:20.106Z,0.00
2022-11-17T02:18:20.122Z,0.00
2022-11-17T02:19:20.079Z,0.00
2022-11-17T02:20:20.065Z,0.00
2022-11-17T02:21:20.046Z,0.00
2022-11-17T02:22:20.038Z,0.00
2022-11-17T02:23:20.026Z,0.00
2022-11-17T02:24:20.039Z,0.00
2022-11-17T02:25:24.315Z,0.00
2022-11-17T02:26:20.997Z,0.00
2022-11-17T02:27:19.985Z,0.00
2022-11-17T02:28:19.967Z,0.00
2022-11-17T02:29:19.985Z,0.00
2022-11-17T02:30:19.945Z,0.00
2022-11-17T02:31:19.936Z,0.00
2022-11-17T02:32:19.917Z,0.00
2022-11-17T02:33:19.906Z,0.00
2022-11-17T02:34:19.897Z,0.00
2022-11-17T02:35:19.916Z,0.00
2022-11-17T02:36:19.875Z,0.00
2022-11-17T02:37:19.867Z,0.00
2022-11-17T02:38:19.855Z,0.00
2022-11-17T02:39:19.856Z,0.00
2022-11-17T02:40:19.827Z,0.00
2022-11-17T02:41:19.836Z,0.00
2022-11-17T02:42:19.805Z,0.00
2022-11-17T02:43:19.805Z,0.00
2022-11-17T02:44:19.797Z,0.00
2022-11-17T02:45:19.775Z,0.00
2022-11-17T02:46:19.785Z,0.00
2022-11-17T02:47:19.756Z,0.00
2022-11-17T02:48:19.752Z,0.00
2022-11-17T02:49:19.737Z,0.00
2022-11-17T02:50:21.105Z,0.00
2022-11-17T02:51:19.714Z,0.00
2022-11-17T02:52:19.714Z,0.00
2022-11-17T02:53:19.690Z,0.00
2022-11-17T02:54:19.665Z,0.00
2022-11-17T02:55:19.667Z,0.00
2022-11-17T02:56:19.645Z,0.00
2022-11-17T02:57:19.656Z,0.00
2022-11-17T02:58:19.627Z,0.00
2022-11-17T02:59:19.615Z,0.00
2022-11-17T03:00:19.596Z,0.00
2022-11-17T03:01:19.604Z,0.00
2022-11-17T03:02:19.577Z,0.00
2022-11-17T03:03:19.595Z,0.00
2022-11-17T03:04:19.554Z,0.00
2022-11-17T03:05:19.546Z,0.00
2022-11-17T03:06:19.536Z,0.00
2022-11-17T03:07:19.578Z,0.00
2022-11-17T03:08:19.507Z,0.00
2022-11-17T03:09:19.513Z,0.00
2022-11-17T03:10:19.485Z,0.00
2022-11-17T03:11:19.475Z,0.00
2022-11-17T03:12:19.456Z,0.00
2022-11-17T03:13:19.456Z,0.00
2022-11-17T03:14:19.465Z,0.00
2022-11-17T03:15:19.435Z,0.00
2022-11-17T03:16:19.413Z,0.00
2022-11-17T03:17:19.406Z,0.00
2022-11-17T03:18:19.395Z,0.00
2022-11-17T03:19:19.389Z,0.00
2022-11-17T03:20:19.395Z,0.00
2022-11-17T03:21:19.366Z,0.00
2022-11-17T03:22:19.345Z,0.00
2022-11-17T03:23:19.355Z,0.00
2022-11-17T03:24:19.325Z,0.00
2022-11-17T03:25:19.315Z,0.00
2022-11-17T03:26:19.327Z,0.00
2022-11-17T03:27:19.296Z,0.00
2022-11-17T03:28:19.276Z,0.00
2022-11-17T03:29:19.264Z,0.00
2022-11-17T03:30:19.255Z,0.00
2022-11-17T03:31:19.276Z,0.00
2022-11-17T03:32:19.293Z,0.00
2022-11-17T03:33:19.216Z,0.00
2022-11-17T03:34:19.215Z,0.00
2022-11-17T03:35:19.211Z,0.00
2022-11-17T03:36:19.191Z,0.00
2022-11-17T03:37:19.176Z,0.00
2022-11-17T03:38:19.206Z,0.00
2022-11-17T03:39:19.155Z,0.00
2022-11-17T03:40:19.147Z,0.00
2022-11-17T03:41:19.125Z,0.00
2022-11-17T03:42:19.114Z,0.00
2022-11-17T03:43:19.114Z,0.00
2022-11-17T03:44:19.131Z,0.00
2022-11-17T03:45:19.093Z,0.00
2022-11-17T03:46:19.072Z,0.00
2022-11-17T03:47:19.070Z,0.00
2022-11-17T03:48:19.365Z,0.00
2022-11-17T03:49:19.066Z,0.00
2022-11-17T03:50:19.056Z,0.00
2022-11-17T03:51:19.015Z,0.00
2022-11-17T03:52:19.003Z,0.00
2022-11-17T03:53:18.993Z,0.00
2022-11-17T03:54:18.975Z,0.00
2022-11-17T03:55:18.972Z,0.00
2022-11-17T03:56:18.996Z,0.00
2022-11-17T03:57:18.954Z,0.00
2022-11-17T03:58:18.929Z,0.00
2022-11-17T03:59:18.927Z,0.00
2022-11-17T04:00:18.907Z,0.00
2022-11-17T04:01:18.940Z,0.00
2022-11-17T04:02:18.929Z,0.00
2022-11-17T04:03:18.874Z,0.00
2022-11-17T04:04:18.866Z,0.00
2022-11-17T04:05:18.854Z,0.00
2022-11-17T04:06:18.842Z,0.00
2022-11-17T04:07:18.896Z,0.00
2022-11-17T04:08:18.834Z,0.00
2022-11-17T04:09:24.011Z,0.00
2022-11-17T04:10:19.794Z,0.00
2022-11-17T04:11:18.786Z,0.00
2022-11-17T04:12:18.765Z,0.00
2022-11-17T04:13:18.786Z,0.00
2022-11-17T04:14:18.747Z,0.00
2022-11-17T04:15:18.734Z,0.00
2022-11-17T04:16:18.727Z,0.00
2022-11-17T04:17:18.717Z,0.00
2022-11-17T04:18:18.705Z,0.00
2022-11-17T04:19:18.722Z,0.00
2022-11-17T04:20:18.674Z,0.00
2022-11-17T04:21:18.677Z,0.00
2022-11-17T04:22:18.654Z,0.00
2022-11-17T04:23:18.646Z,0.00
2022-11-17T04:24:18.637Z,0.00
2022-11-17T04:25:18.654Z,0.00
2022-11-17T04:26:18.615Z,0.00
2022-11-17T04:27:18.605Z,0.00
2022-11-17T04:28:18.594Z,0.00
2022-11-17T04:29:18.584Z,0.00
2022-11-17T04:30:18.574Z,0.00
2022-11-17T04:31:18.584Z,0.00
2022-11-17T04:32:18.534Z,0.00
2022-11-17T04:33:18.542Z,0.00
2022-11-17T04:34:18.524Z,0.00
2022-11-17T04:35:18.515Z,0.00
2022-11-17T04:36:18.494Z,0.00
2022-11-17T04:37:18.503Z,0.00
2022-11-17T04:38:18.475Z,0.00
2022-11-17T04:39:18.465Z,0.00
2022-11-17T04:40:18.460Z,0.00
2022-11-17T04:41:18.452Z,0.00
2022-11-17T04:42:18.484Z,0.00
2022-11-17T04:43:18.424Z,0.00
2022-11-17T04:44:18.405Z,0.00
2022-11-17T04:45:18.395Z,0.00
2022-11-17T04:46:18.384Z,0.00
2022-11-17T04:47:18.373Z,0.00
2022-11-17T04:48:18.390Z,0.00
2022-11-17T04:49:18.353Z,0.00
2022-11-17T04:50:18.343Z,0.00
2022-11-17T04:51:18.328Z,0.00
2022-11-17T04:52:18.313Z,0.00
2022-11-17T04:53:18.306Z,0.00
2022-11-17T04:54:18.324Z,0.00
2022-11-17T04:55:18.274Z,0.00
2022-11-17T04:56:18.275Z,0.00
2022-11-17T04:57:18.255Z,0.00
2022-11-17T04:58:18.244Z,0.00
2022-11-17T04:59:18.235Z,0.00
2022-11-17T05:00:18.281Z,0.00
2022-11-17T05:01:18.219Z,0.00
2022-11-17T05:02:18.265Z,0.00
2022-11-17T05:03:18.185Z,0.00
2022-11-17T05:04:18.176Z,0.00
2022-11-17T05:05:18.165Z,0.00
2022-11-17T05:06:18.195Z,0.00
2022-11-17T05:07:18.212Z,0.00
2022-11-17T05:08:18.125Z,0.00
2022-11-17T05:09:18.117Z,0.00
2022-11-17T05:10:18.104Z,0.00
2022-11-17T05:11:18.199Z,0.00
2022-11-17T05:12:18.108Z,0.00
2022-11-17T05:13:18.082Z,0.00
2022-11-17T05:14:18.063Z,0.00
2022-11-17T05:15:18.054Z,0.00
2022-11-17T05:16:18.038Z,0.00
2022-11-17T05:17:18.044Z,0.00
2022-11-17T05:18:18.064Z,0.00
2022-11-17T05:19:18.007Z,0.00
2022-11-17T05:20:18.002Z,0.00
2022-11-17T05:21:17.979Z,0.00
2022-11-17T05:22:17.966Z,0.00
2022-11-17T05:23:18.076Z,0.00
2022-11-17T05:24:17.952Z,0.00
2022-11-17T05:25:17.940Z,0.00
2022-11-17T05:26:17.915Z,0.00
2022-11-17T05:27:17.915Z,0.00
2022-11-17T05:28:17.897Z,0.00
2022-11-17T05:29:17.905Z,0.00
2022-11-17T05:30:17.877Z,0.00
2022-11-17T05:31:17.874Z,0.00
2022-11-17T05:32:17.882Z,0.00
2022-11-17T05:33:17.844Z,0.00
2022-11-17T05:34:18.076Z,0.00
2022-11-17T05:35:17.825Z,0.00
2022-11-17T05:36:17.806Z,0.00
2022-11-17T05:37:17.796Z,0.00
2022-11-17T05:38:17.784Z,0.00
2022-11-17T05:39:17.776Z,0.00
2022-11-17T05:40:17.785Z,0.00
2022-11-17T05:41:17.757Z,0.00
2022-11-17T05:42:17.736Z,0.00
2022-11-17T05:43:17.728Z,0.00
2022-11-17T05:44:17.718Z,0.00
2022-11-17T05:45:17.707Z,0.00
2022-11-17T05:46:17.744Z,0.00
2022-11-17T05:47:17.724Z,0.00
2022-11-17T05:48:17.668Z,0.00
2022-11-17T05:49:17.666Z,0.00
2022-11-17T05:50:17.656Z,0.00
2022-11-17T05:51:17.646Z,0.00
2022-11-17T05:52:17.647Z,0.00
2022-11-17T05:53:17.606Z,0.00
2022-11-17T05:54:17.605Z,0.00
2022-11-17T05:55:17.588Z,0.00
2022-11-17T05:56:17.586Z,0.00
2022-11-17T05:57:17.569Z,0.00
2022-11-17T05:58:17.577Z,0.00
2022-11-17T05:59:17.547Z,0.00
2022-11-17T06:00:17.536Z,0.00
2022-11-17T06:01:17.524Z,0.00
2022-11-17T06:02:17.517Z,0.00
2022-11-17T06:03:17.524Z,0.00
2022-11-17T06:04:17.572Z,0.00
2022-11-17T06:05:20.437Z,0.00
2022-11-17T06:06:17.467Z,0.00
2022-11-17T06:07:17.496Z,0.00
2022-11-17T06:08:17.448Z,0.00
2022-11-17T06:09:17.682Z,0.00
2022-11-17T06:10:17.463Z,0.00
2022-11-17T06:11:17.407Z,0.00
2022-11-17T06:12:17.399Z,0.00
2022-11-17T06:13:17.387Z,0.00
2022-11-17T06:14:17.375Z,0.00
2022-11-17T06:15:17.396Z,0.00
2022-11-17T06:16:17.356Z,0.00
2022-11-17T06:17:21.786Z,4.00
2022-11-17T06:18:18.336Z,4.00
2022-11-17T06:19:17.306Z,0.00
2022-11-17T06:20:17.325Z,4.00
2022-11-17T06:21:17.296Z,4.00
2022-11-17T06:22:17.326Z,4.00
2022-11-17T06:23:17.267Z,4.00
2022-11-17T06:24:17.259Z,4.00
2022-11-17T06:25:17.236Z,4.00
2022-11-17T06:26:17.266Z,4.00
2022-11-17T06:27:17.224Z,4.00
2022-11-17T06:28:17.206Z,4.00
2022-11-17T06:29:17.197Z,4.00
2022-11-17T06:30:17.186Z,12.00
2022-11-17T06:31:17.176Z,12.00
2022-11-17T06:32:17.187Z,12.00
2022-11-17T06:33:17.157Z,16.00
2022-11-17T06:34:17.147Z,20.00
2022-11-17T06:35:17.137Z,20.00
2022-11-17T06:36:17.261Z,32.00
2022-11-17T06:37:17.107Z,36.00
2022-11-17T06:38:17.126Z,52.00
2022-11-17T06:39:17.078Z,64.00
2022-11-17T06:40:17.080Z,84.00
2022-11-17T06:41:17.065Z,104.00
2022-11-17T06:42:17.047Z,100.00
2022-11-17T06:43:17.066Z,96.00
2022-11-17T06:44:17.029Z,84.00
2022-11-17T06:45:17.006Z,92.00
2022-11-17T06:46:17.006Z,100.00
2022-11-17T06:47:16.990Z,100.00
2022-11-17T06:48:17.001Z,80.00
2022-11-17T06:49:16.987Z,76.00
2022-11-17T06:50:16.978Z,64.00
2022-11-17T06:51:16.951Z,72.00
2022-11-17T06:52:16.936Z,88.00
2022-11-17T06:53:16.944Z,100.00
2022-11-17T06:54:16.963Z,140.00
2022-11-17T06:55:16.962Z,160.00
2022-11-17T06:56:16.934Z,148.00
2022-11-17T06:57:16.904Z,136.00
2022-11-17T06:58:16.915Z,136.00
2022-11-17T06:59:16.882Z,148.00
2022-11-17T07:00:16.985Z,180.00
2022-11-17T07:01:17.095Z,144.00
2022-11-17T07:02:16.873Z,120.00
2022-11-17T07:03:16.832Z,124.00
2022-11-17T07:04:16.865Z,184.00
2022-11-17T07:05:16.818Z,272.00
2022-11-17T07:06:16.825Z,204.00
2022-11-17T07:07:16.880Z,192.00
2022-11-17T07:08:16.804Z,312.00
2022-11-17T07:09:16.763Z,404.00
2022-11-17T07:10:16.783Z,556.00
2022-11-17T07:11:16.742Z,516.00
2022-11-17T07:12:16.754Z,528.00
2022-11-17T07:13:16.793Z,356.00
2022-11-17T07:14:16.734Z,324.00
2022-11-17T07:15:16.698Z,300.00
2022-11-17T07:16:22.984Z,216.00
2022-11-17T07:17:17.674Z,320.00
2022-11-17T07:18:16.684Z,396.00
2022-11-17T07:19:16.664Z,420.00
2022-11-17T07:20:16.664Z,340.00
2022-11-17T07:21:16.625Z,420.00
2022-11-17T07:22:16.634Z,392.00
2022-11-17T07:23:16.605Z,424.00
2022-11-17T07:24:16.641Z,448.00
2022-11-17T07:25:21.094Z,364.00
2022-11-17T07:26:17.594Z,416.00
2022-11-17T07:27:16.564Z,420.00
2022-11-17T07:28:16.574Z,412.00
2022-11-17T07:29:16.534Z,464.00
2022-11-17T07:30:16.605Z,400.00
2022-11-17T07:31:16.514Z,356.00
2022-11-17T07:32:16.523Z,432.00
2022-11-17T07:33:16.484Z,472.00
2022-11-17T07:34:16.506Z,404.00
2022-11-17T07:35:16.463Z,716.00
2022-11-17T07:36:16.493Z,908.00
2022-11-17T07:37:16.521Z,1048.00
2022-11-17T07:38:16.454Z,1436.00
2022-11-17T07:39:21.296Z,1260.00
2022-11-17T07:40:17.432Z,1168.00
2022-11-17T07:41:16.433Z,1340.00
2022-11-17T07:42:16.403Z,904.00
2022-11-17T07:43:16.376Z,1476.00
2022-11-17T07:44:16.383Z,2280.00
2022-11-17T07:45:16.353Z,1952.00
2022-11-17T07:46:16.364Z,1672.00
2022-11-17T07:47:16.358Z,2320.00
2022-11-17T07:48:16.341Z,4208.00
2022-11-17T07:49:16.302Z,6168.00
2022-11-17T07:50:16.316Z,8464.00
2022-11-17T07:51:16.285Z,8312.00
2022-11-17T07:52:16.294Z,5356.00
2022-11-17T07:53:16.313Z,3656.00
2022-11-17T07:54:16.281Z,2992.00
2022-11-17T07:55:16.259Z,2576.00
2022-11-17T07:56:16.244Z,2488.00
2022-11-17T07:57:16.232Z,2036.00
2022-11-17T07:58:16.235Z,1380.00
2022-11-17T07:59:21.246Z,1148.00
2022-11-17T08:00:17.206Z,1064.00
2022-11-17T08:01:16.221Z,1320.00
2022-11-17T08:02:16.174Z,1656.00
2022-11-17T08:03:16.179Z,1700.00
2022-11-17T08:04:16.155Z,2092.00
2022-11-17T08:05:16.134Z,1912.00
2022-11-17T08:06:16.135Z,1524.00
2022-11-17T08:07:16.150Z,1892.00
2022-11-17T08:08:16.114Z,1668.00
2022-11-17T08:09:16.073Z,1096.00
2022-11-17T08:10:16.103Z,1380.00
2022-11-17T08:11:16.063Z,1292.00
2022-11-17T08:12:16.062Z,1288.00
2022-11-17T08:13:16.034Z,1788.00
2022-11-17T08:14:16.046Z,1820.00
2022-11-17T08:15:16.003Z,1536.00
2022-11-17T08:16:16.033Z,1432.00
2022-11-17T08:17:15.985Z,932.00
2022-11-17T08:18:15.997Z,836.00
2022-11-17T08:19:15.964Z,1004.00
2022-11-17T08:20:15.975Z,884.00
2022-11-17T08:21:15.953Z,656.00
2022-11-17T08:22:15.944Z,480.00
2022-11-17T08:23:16.044Z,624.00
2022-11-17T08:24:16.133Z,1240.00
2022-11-17T08:25:15.998Z,2032.00
2022-11-17T08:26:23.030Z,2808.00
2022-11-17T08:27:15.870Z,3200.00
2022-11-17T08:28:15.880Z,3236.00
2022-11-17T08:29:15.850Z,2836.00
2022-11-17T08:30:15.861Z,1792.00
2022-11-17T08:31:15.852Z,1964.00
2022-11-17T08:32:15.868Z,1448.00
2022-11-17T08:33:15.803Z,1060.00
2022-11-17T08:34:15.810Z,872.00
2022-11-17T08:35:15.782Z,764.00
2022-11-17T08:36:15.794Z,916.00
2022-11-17T08:37:15.750Z,1808.00
2022-11-17T08:38:15.793Z,1568.00
2022-11-17T08:39:15.729Z,1456.00
2022-11-17T08:40:15.753Z,1268.00
2022-11-17T08:41:15.710Z,1108.00
2022-11-17T08:42:15.721Z,1108.00
2022-11-17T08:43:15.689Z,1060.00
2022-11-17T08:44:15.720Z,1028.00
2022-11-17T08:45:15.660Z,1552.00
2022-11-17T08:46:15.683Z,1892.00
2022-11-17T08:47:15.641Z,2236.00
2022-11-17T08:48:15.651Z,2328.00
2022-11-17T08:49:15.660Z,1912.00
2022-11-17T08:50:15.649Z,1724.00
2022-11-17T08:51:15.591Z,1640.00
2022-11-17T08:52:15.613Z,1740.00
2022-11-17T08:53:15.571Z,1928.00
2022-11-17T08:54:15.584Z,1912.00
2022-11-17T08:55:15.683Z,2076.00
2022-11-17T08:56:15.560Z,2020.00
2022-11-17T08:57:15.586Z,1424.00
2022-11-17T08:58:15.516Z,1152.00
2022-11-17T08:59:15.485Z,1044.00
2022-11-17T09:00:15.496Z,968.00
2022-11-17T09:01:15.600Z,852.00
2022-11-17T09:02:15.475Z,692.00
2022-11-17T09:03:15.476Z,608.00
2022-11-17T09:04:15.455Z,628.00
2022-11-17T09:05:15.446Z,560.00
2022-11-17T09:06:15.425Z,596.00
2022-11-17T09:07:15.452Z,644.00
2022-11-17T09:08:43.871Z,768.00
2022-11-17T09:09:16.426Z,796.00
2022-11-17T09:10:15.382Z,908.00
2022-11-17T09:11:15.346Z,1140.00
2022-11-17T09:12:15.383Z,1176.00
2022-11-17T09:13:18.623Z,1108.00
2022-11-17T09:14:15.336Z,716.00
2022-11-17T09:15:15.305Z,508.00
2022-11-17T09:16:15.315Z,564.00
2022-11-17T09:17:15.286Z,928.00
2022-11-17T09:18:15.316Z,1128.00
2022-11-17T09:19:15.255Z,1096.00
2022-11-17T09:20:15.274Z,912.00
2022-11-17T09:21:15.236Z,508.00
2022-11-17T09:22:15.257Z,328.00
2022-11-17T09:23:15.215Z,304.00
2022-11-17T09:24:15.243Z,348.00
2022-11-17T09:25:15.195Z,448.00
2022-11-17T09:26:15.207Z,648.00
2022-11-17T09:27:15.166Z,820.00
2022-11-17T09:28:15.176Z,892.00
2022-11-17T09:29:15.146Z,996.00
2022-11-17T09:30:15.196Z,1056.00
2022-11-17T09:31:15.177Z,1332.00
2022-11-17T09:32:15.136Z,1632.00
2022-11-17T09:33:15.106Z,1760.00
2022-11-17T09:34:15.165Z,1712.00
2022-11-17T09:35:15.095Z,1612.00
2022-11-17T09:36:15.085Z,1584.00
2022-11-17T09:37:15.054Z,1372.00
2022-11-17T09:38:15.063Z,1316.00
2022-11-17T09:39:15.036Z,1388.00
2022-11-17T09:40:15.077Z,1472.00
2022-11-17T09:41:15.009Z,1632.00
2022-11-17T09:42:15.017Z,1864.00
2022-11-17T09:43:14.985Z,2204.00
2022-11-17T09:44:14.988Z,2704.00
2022-11-17T09:45:14.956Z,3188.00
2022-11-17T09:46:15.037Z,3544.00
2022-11-17T09:47:14.937Z,3744.00
2022-11-17T09:48:38.777Z,3908.00
2022-11-17T09:49:15.906Z,4088.00
2022-11-17T09:50:14.927Z,4220.00
2022-11-17T09:51:14.897Z,4268.00
2022-11-17T09:52:14.936Z,4340.00
2022-11-17T09:53:14.867Z,4568.00
2022-11-17T09:54:14.877Z,5024.00
2022-11-17T09:55:14.844Z,5468.00
2022-11-17T09:56:14.859Z,5612.00
2022-11-17T09:57:14.826Z,6336.00
2022-11-17T09:58:14.876Z,6444.00
2022-11-17T09:59:14.796Z,5980.00
2022-11-17T10:00:14.825Z,5744.00
2022-11-17T10:01:14.795Z,5308.00
2022-11-17T10:02:14.840Z,4636.00
2022-11-17T10:03:14.755Z,4516.00
2022-11-17T10:04:14.785Z,4292.00
2022-11-17T10:05:14.747Z,3980.00
2022-11-17T10:06:14.718Z,3760.00
2022-11-17T10:07:14.784Z,3408.00
2022-11-17T10:08:14.697Z,3440.00
2022-11-17T10:09:14.717Z,2728.00
2022-11-17T10:10:14.686Z,2096.00
2022-11-17T10:11:14.691Z,2084.00
2022-11-17T10:12:14.648Z,1884.00
2022-11-17T10:13:14.731Z,1984.00
2022-11-17T10:14:14.627Z,2028.00
2022-11-17T10:15:14.674Z,1984.00
2022-11-17T10:16:14.617Z,2008.00
2022-11-17T10:17:14.616Z,1932.00
2022-11-17T10:18:14.580Z,1792.00
2022-11-17T10:19:14.595Z,1832.00
2022-11-17T10:20:14.564Z,1780.00
2022-11-17T10:21:14.650Z,1640.00
2022-11-17T10:22:14.537Z,1664.00
2022-11-17T10:23:14.554Z,1596.00
2022-11-17T10:24:14.548Z,1712.00
2022-11-17T10:25:14.528Z,1632.00
2022-11-17T10:26:14.490Z,1584.00
2022-11-17T10:27:14.537Z,1824.00
2022-11-17T10:28:14.468Z,2088.00
2022-11-17T10:29:14.476Z,2528.00
2022-11-17T10:30:14.446Z,2364.00
2022-11-17T10:31:14.452Z,2104.00
2022-11-17T10:32:14.417Z,1976.00
2022-11-17T10:33:14.447Z,2368.00
2022-11-17T10:34:14.410Z,2872.00
2022-11-17T10:35:14.409Z,2764.00
2022-11-17T10:36:14.377Z,2716.00
2022-11-17T10:37:14.398Z,2088.00
2022-11-17T10:38:14.386Z,1464.00
2022-11-17T10:39:17.733Z,1040.00
2022-11-17T10:40:14.331Z,1008.00
2022-11-17T10:41:14.339Z,1212.00
2022-11-17T10:42:14.307Z,1352.00
2022-11-17T10:43:14.322Z,1404.00
2022-11-17T10:44:14.317Z,1840.00
2022-11-17T10:45:14.288Z,2468.00
2022-11-17T10:46:14.261Z,2488.00
2022-11-17T10:47:14.268Z,2696.00
2022-11-17T10:48:14.240Z,2900.00
2022-11-17T10:49:14.252Z,3528.00
2022-11-17T10:50:14.259Z,5488.00
2022-11-17T10:51:14.226Z,8260.00
2022-11-17T10:52:14.198Z,8848.00
2022-11-17T10:53:14.210Z,8880.00
2022-11-17T10:54:14.180Z,8848.00
2022-11-17T10:55:14.178Z,8804.00
2022-11-17T10:56:14.170Z,8820.00
2022-11-17T10:57:14.166Z,9360.00
2022-11-17T10:58:14.159Z,10336.00
2022-11-17T10:59:14.144Z,11672.00
2022-11-17T11:00:14.100Z,12052.00
2022-11-17T11:01:14.165Z,12260.00
2022-11-17T11:02:14.114Z,12324.00
2022-11-17T11:03:14.087Z,12196.00
2022-11-17T11:04:14.051Z,11924.00
2022-11-17T11:05:14.069Z,11580.00
2022-11-17T11:06:17.461Z,11276.00
2022-11-17T11:07:14.225Z,11108.00
2022-11-17T11:08:14.009Z,10724.00
2022-11-17T11:09:14.027Z,10444.00
2022-11-17T11:10:13.981Z,10176.00
2022-11-17T11:11:14.000Z,9604.00
2022-11-17T11:12:14.041Z,8756.00
2022-11-17T11:13:13.991Z,7244.00
2022-11-17T11:14:13.939Z,4984.00
2022-11-17T11:15:13.950Z,4136.00
2022-11-17T11:16:13.923Z,4544.00
2022-11-17T11:17:13.928Z,3900.00
2022-11-17T11:18:13.909Z,3640.00
2022-11-17T11:19:13.920Z,3564.00
2022-11-17T11:20:13.877Z,2988.00
2022-11-17T11:21:13.881Z,2452.00
2022-11-17T11:22:19.726Z,2128.00
2022-11-17T11:23:14.860Z,2136.00
2022-11-17T11:24:13.841Z,2240.00
2022-11-17T11:25:13.837Z,2380.00
2022-11-17T11:26:13.801Z,2568.00
2022-11-17T11:27:13.813Z,2812.00
2022-11-17T11:28:13.781Z,3112.00
2022-11-17T11:29:13.780Z,3492.00
2022-11-17T11:30:13.813Z,3984.00
2022-11-17T11:31:13.770Z,4552.00
2022-11-17T11:32:13.742Z,5120.00
2022-11-17T11:33:13.751Z,5844.00
2022-11-17T11:34:13.710Z,6664.00
2022-11-17T11:35:17.298Z,7124.00
2022-11-17T11:36:13.711Z,7544.00
2022-11-17T11:37:13.699Z,7708.00
2022-11-17T11:38:13.669Z,7512.00
2022-11-17T11:39:13.797Z,7304.00
2022-11-17T11:40:13.640Z,7180.00
2022-11-17T11:41:13.650Z,7064.00
2022-11-17T11:42:13.647Z,7220.00
2022-11-17T11:43:13.628Z,7384.00
2022-11-17T11:44:13.724Z,7600.00
2022-11-17T11:45:13.609Z,7924.00
2022-11-17T11:46:13.613Z,8276.00
2022-11-17T11:47:13.666Z,8592.00
2022-11-17T11:48:13.563Z,8564.00
2022-11-17T11:49:13.622Z,8072.00
2022-11-17T11:50:13.584Z,7340.00
2022-11-17T11:51:13.562Z,6600.00
2022-11-17T11:52:13.522Z,5896.00
2022-11-17T11:53:13.621Z,5380.00
2022-11-17T11:54:13.858Z,4988.00
2022-11-17T11:55:13.541Z,4756.00
2022-11-17T11:56:13.481Z,4700.00
2022-11-17T11:57:13.493Z,4876.00
2022-11-17T11:58:13.443Z,5308.00
2022-11-17T11:59:13.581Z,5872.00
2022-11-17T12:00:13.485Z,6548.00
2022-11-17T12:01:13.492Z,7256.00
2022-11-17T12:02:13.435Z,8012.00
2022-11-17T12:03:13.487Z,8632.00
2022-11-17T12:04:13.824Z,8972.00
2022-11-17T12:05:13.410Z,8752.00
2022-11-17T12:06:13.363Z,8532.00
2022-11-17T12:07:13.408Z,8440.00
2022-11-17T12:08:13.389Z,8388.00
2022-11-17T12:09:13.384Z,8360.00
2022-11-17T12:10:13.378Z,8292.00
2022-11-17T12:11:13.345Z,8388.00
2022-11-17T12:12:13.290Z,8492.00
2022-11-17T12:13:13.390Z,8492.00
2022-11-17T12:14:13.579Z,8416.00
2022-11-17T12:15:13.320Z,8488.00
2022-11-17T12:16:13.315Z,8520.00
2022-11-17T12:17:13.284Z,9024.00
2022-11-17T12:18:13.251Z,9508.00
2022-11-17T12:19:13.274Z,9604.00
2022-11-17T12:20:13.236Z,10156.00
2022-11-17T12:21:13.223Z,10560.00
2022-11-17T12:22:13.231Z,12104.00
2022-11-17T12:23:13.218Z,12228.00
2022-11-17T12:24:13.492Z,11272.00
2022-11-17T12:25:13.163Z,9680.00
2022-11-17T12:26:13.152Z,9300.00
2022-11-17T12:27:13.164Z,8464.00
2022-11-17T12:28:13.174Z,7468.00
2022-11-17T12:29:13.133Z,6708.00
2022-11-17T12:30:13.073Z,6312.00
2022-11-17T12:31:13.128Z,6108.00
2022-11-17T12:32:13.063Z,6236.00
2022-11-17T12:33:13.084Z,6620.00
2022-11-17T12:34:13.276Z,7292.00
2022-11-17T12:35:13.033Z,7308.00
2022-11-17T12:36:13.004Z,7128.00
2022-11-17T12:37:13.016Z,6740.00
2022-11-17T12:38:13.011Z,6468.00
2022-11-17T12:39:13.004Z,6136.00
2022-11-17T12:40:12.957Z,5732.00
2022-11-17T12:41:12.965Z,5140.00
2022-11-17T12:42:12.939Z,4348.00
2022-11-17T12:43:12.947Z,3744.00
2022-11-17T12:44:13.336Z,4084.00